createdAt,value
2022-08-20T00:01:01.971Z,3.10
2022-08-20T00:03:33.542Z,2.78
2022-08-20T00:06:01.929Z,2.85
2022-08-20T00:08:29.337Z,2.90
2022-08-20T00:10:56.635Z,2.47
2022-08-20T00:13:24.761Z,2.63
2022-08-20T00:15:51.594Z,2.80
2022-08-20T00:18:18.343Z,3.70
2022-08-20T00:20:46.398Z,5.05
2022-08-20T00:23:13.346Z,4.85
2022-08-20T00:25:39.921Z,5.65
2022-08-20T00:28:07.420Z,7.03
2022-08-20T00:30:35.259Z,6.72
2022-08-20T00:33:05.384Z,8.45
2022-08-20T00:35:32.861Z,7.72
2022-08-20T00:38:00.842Z,8.57
2022-08-20T00:40:34.980Z,8.82
2022-08-20T00:43:03.488Z,9.93
2022-08-20T00:45:32.159Z,11.13
2022-08-20T00:47:58.942Z,12.32
2022-08-20T00:50:43.676Z,12.27
2022-08-20T00:53:10.201Z,13.35
2022-08-20T00:55:36.930Z,11.68
2022-08-20T00:58:08.480Z,12.48
2022-08-20T01:00:40.409Z,13.60
2022-08-20T01:03:11.332Z,13.15
2022-08-20T01:05:39.117Z,14.07
2022-08-20T01:08:06.074Z,14.38
2022-08-20T01:10:34.984Z,14.63
2022-08-20T01:13:04.060Z,20.20
2022-08-20T01:15:31.895Z,15.82
2022-08-20T01:17:59.554Z,17.88
2022-08-20T01:20:28.327Z,18.67
2022-08-20T01:23:24.662Z,16.10
2022-08-20T01:25:53.585Z,18.45
2022-08-20T01:28:23.062Z,15.25
2022-08-20T01:30:49.656Z,17.35
2022-08-20T01:33:17.352Z,27.83
2022-08-20T01:35:44.528Z,26.75
2022-08-20T01:38:11.531Z,18.13
2022-08-20T01:40:51.860Z,18.25
2022-08-20T01:43:18.554Z,22.20
2022-08-20T01:45:48.706Z,21.83
2022-08-20T01:48:18.006Z,19.15
2022-08-20T01:50:50.118Z,17.80
2022-08-20T01:53:18.478Z,17.23
2022-08-20T01:55:45.015Z,22.65
2022-08-20T01:58:11.677Z,21.23
2022-08-20T02:00:38.303Z,16.95
2022-08-20T02:03:05.225Z,17.52
2022-08-20T02:05:32.564Z,19.85
2022-08-20T02:07:59.624Z,22.98
2022-08-20T02:10:26.194Z,26.83
2022-08-20T02:12:53.040Z,22.60
2022-08-20T02:15:34.979Z,15.95
2022-08-20T02:18:05.699Z,16.48
2022-08-20T02:20:34.911Z,19.45
2022-08-20T02:23:01.469Z,17.05
2022-08-20T02:25:29.711Z,20.38
2022-08-20T02:28:00.583Z,16.70
2022-08-20T02:30:29.378Z,15.73
2022-08-20T02:32:57.109Z,22.90
2022-08-20T02:35:24.598Z,19.98
2022-08-20T02:37:52.681Z,16.95
2022-08-20T02:40:26.965Z,21.10
2022-08-20T02:42:57.156Z,19.65
2022-08-20T02:45:23.688Z,16.13
2022-08-20T02:47:52.561Z,21.00
2022-08-20T02:50:20.718Z,19.20
2022-08-20T02:52:51.793Z,16.88
2022-08-20T02:55:27.995Z,16.00
2022-08-20T02:57:57.941Z,17.42
2022-08-20T03:00:26.115Z,17.50
2022-08-20T03:02:52.646Z,19.13
2022-08-20T03:05:19.298Z,19.23
2022-08-20T03:07:47.258Z,17.35
2022-08-20T03:10:14.698Z,22.38
2022-08-20T03:12:41.908Z,19.15
2022-08-20T03:15:17.509Z,25.50
2022-08-20T03:17:44.845Z,18.05
2022-08-20T03:20:12.222Z,21.90
2022-08-20T03:22:38.764Z,17.58
2022-08-20T03:25:06.040Z,18.67
2022-08-20T03:27:36.537Z,22.85
2022-08-20T03:30:05.619Z,25.33
2022-08-20T03:32:32.181Z,21.73
2022-08-20T03:34:58.721Z,18.20
2022-08-20T03:37:25.379Z,18.02
2022-08-20T03:39:52.158Z,18.50
2022-08-20T03:42:18.710Z,19.50
2022-08-20T03:44:45.376Z,17.58
2022-08-20T03:47:12.017Z,18.13
2022-08-20T03:49:38.547Z,18.17
2022-08-20T03:52:06.207Z,19.13
2022-08-20T03:54:32.834Z,19.38
2022-08-20T03:57:00.744Z,17.60
2022-08-20T03:59:27.324Z,17.80
2022-08-20T04:01:54.672Z,20.55
2022-08-20T04:04:22.117Z,16.25
2022-08-20T04:06:48.639Z,21.80
2022-08-20T04:09:15.406Z,23.48
2022-08-20T04:11:42.314Z,16.85
2022-08-20T04:14:11.044Z,23.50
2022-08-20T04:16:39.411Z,23.35
2022-08-20T04:19:06.225Z,20.92
2022-08-20T04:21:33.660Z,17.67
2022-08-20T04:24:00.803Z,22.65
2022-08-20T04:26:27.446Z,18.23
2022-08-20T04:28:55.521Z,17.63
2022-08-20T04:31:25.337Z,21.13
2022-08-20T04:33:52.628Z,21.27
2022-08-20T04:36:19.313Z,23.02
2022-08-20T04:38:48.393Z,19.58
2022-08-20T04:41:23.071Z,28.30
2022-08-20T04:43:50.907Z,20.00
2022-08-20T04:46:17.467Z,21.00
2022-08-20T04:48:49.124Z,25.13
2022-08-20T04:51:16.781Z,29.83
2022-08-20T04:53:44.581Z,30.23
2022-08-20T04:56:23.383Z,40.25
2022-08-20T04:58:51.172Z,34.80
2022-08-20T05:01:17.793Z,24.83
2022-08-20T05:03:45.967Z,27.80
2022-08-20T05:06:12.652Z,49.05
2022-08-20T05:08:39.304Z,26.42
2022-08-20T05:11:34.807Z,25.13
2022-08-20T05:13:53.590Z,23.00
2022-08-20T05:16:20.224Z,46.45
2022-08-20T05:18:52.240Z,25.25
2022-08-20T05:21:20.077Z,25.30
2022-08-20T05:23:46.653Z,28.98
2022-08-20T05:26:15.857Z,24.60
2022-08-20T05:28:53.969Z,26.20
2022-08-20T05:31:31.285Z,32.47
2022-08-20T05:34:10.273Z,38.00
2022-08-20T05:36:40.720Z,44.72
2022-08-20T05:39:08.815Z,38.40
2022-08-20T05:41:36.300Z,35.60
2022-08-20T05:44:03.525Z,43.95
2022-08-20T05:46:31.509Z,28.70
2022-08-20T05:48:59.758Z,37.22
2022-08-20T05:51:27.374Z,20.85
2022-08-20T05:53:53.946Z,28.75
2022-08-20T05:56:26.619Z,21.63
2022-08-20T05:58:53.867Z,20.30
2022-08-20T06:01:20.427Z,30.27
2022-08-20T06:04:05.798Z,21.60
2022-08-20T06:06:45.666Z,19.52
2022-08-20T06:09:14.872Z,18.80
2022-08-20T06:11:41.399Z,15.88
2022-08-20T06:14:07.970Z,18.20
2022-08-20T06:16:34.565Z,13.77
2022-08-20T06:19:04.603Z,21.38
2022-08-20T06:21:35.099Z,12.13
2022-08-20T06:24:04.554Z,33.78
2022-08-20T06:26:32.737Z,20.88
2022-08-20T06:28:59.777Z,25.88
2022-08-20T06:31:29.236Z,37.90
2022-08-20T06:33:58.375Z,37.88
2022-08-20T06:36:27.503Z,29.35
2022-08-20T06:38:56.216Z,34.33
2022-08-20T06:41:22.900Z,48.92
2022-08-20T06:44:02.762Z,63.58
2022-08-20T06:46:29.955Z,61.35
2022-08-20T06:48:56.484Z,72.30
2022-08-20T06:51:23.842Z,77.60
2022-08-20T06:53:50.586Z,72.72
2022-08-20T06:56:17.891Z,73.53
2022-08-20T06:58:44.671Z,72.53
2022-08-20T07:01:12.149Z,65.35
2022-08-20T07:03:39.813Z,83.43
2022-08-20T07:06:11.211Z,64.85
2022-08-20T07:08:38.384Z,67.90
2022-08-20T07:11:06.971Z,68.15
2022-08-20T07:13:36.577Z,67.97
2022-08-20T07:16:06.546Z,67.30
2022-08-20T07:18:33.471Z,79.38
2022-08-20T07:21:00.300Z,50.05
2022-08-20T07:23:26.892Z,47.95
2022-08-20T07:25:53.883Z,69.28
2022-08-20T07:28:22.032Z,74.50
2022-08-20T07:31:13.556Z,61.25
2022-08-20T07:33:42.725Z,79.72
2022-08-20T07:36:12.176Z,71.40
2022-08-20T07:38:39.116Z,59.42
2022-08-20T07:41:07.703Z,54.60
2022-08-20T07:43:34.839Z,59.03
2022-08-20T07:46:02.835Z,51.90
2022-08-20T07:48:31.790Z,50.35
2022-08-20T07:51:00.009Z,38.80
2022-08-20T07:53:26.984Z,61.15
2022-08-20T07:55:58.991Z,55.78
2022-08-20T07:58:33.279Z,50.63
2022-08-20T08:01:00.453Z,54.28
2022-08-20T08:03:40.889Z,52.53
2022-08-20T08:06:17.010Z,48.17
2022-08-20T08:08:54.872Z,45.97
2022-08-20T08:11:21.499Z,51.03
2022-08-20T08:13:48.223Z,43.35
2022-08-20T08:16:15.167Z,44.13
2022-08-20T08:18:50.308Z,43.15
2022-08-20T08:21:22.452Z,47.10
2022-08-20T08:23:50.159Z,50.60
2022-08-20T08:26:19.045Z,43.63
2022-08-20T08:28:45.877Z,37.78
2022-08-20T08:31:12.777Z,37.88
2022-08-20T08:33:40.660Z,41.15
2022-08-20T08:36:09.768Z,45.72
2022-08-20T08:38:37.976Z,40.92
2022-08-20T08:41:13.933Z,45.88
2022-08-20T08:43:40.889Z,41.83
2022-08-20T08:46:09.712Z,43.15
2022-08-20T08:48:37.865Z,41.13
2022-08-20T08:51:11.875Z,34.85
2022-08-20T08:53:51.077Z,35.80
2022-08-20T08:56:17.658Z,34.17
2022-08-20T08:58:45.139Z,37.25
2022-08-20T09:01:13.945Z,33.72
2022-08-20T09:04:02.730Z,44.22
2022-08-20T09:06:29.321Z,39.50
2022-08-20T09:08:58.072Z,50.78
2022-08-20T09:11:25.475Z,35.75
2022-08-20T09:13:54.350Z,38.17
2022-08-20T09:16:22.981Z,39.10
2022-08-20T09:18:50.158Z,31.33
2022-08-20T09:21:17.206Z,37.92
2022-08-20T09:23:44.287Z,29.27
2022-08-20T09:26:11.195Z,27.25
2022-08-20T09:28:37.977Z,33.20
2022-08-20T09:31:05.013Z,33.70
2022-08-20T09:33:33.580Z,32.10
2022-08-20T09:36:00.233Z,37.80
2022-08-20T09:38:26.957Z,37.35
2022-08-20T09:40:53.628Z,42.28
2022-08-20T09:43:22.021Z,36.45
2022-08-20T09:45:48.585Z,37.83
2022-08-20T09:48:15.611Z,30.50
2022-08-20T09:50:44.738Z,35.08
2022-08-20T09:53:11.755Z,25.80
2022-08-20T09:55:45.402Z,32.67
2022-08-20T09:58:19.759Z,33.50
2022-08-20T10:00:46.447Z,32.10
2022-08-20T10:03:13.200Z,31.95
2022-08-20T10:05:39.837Z,34.65
2022-08-20T10:08:07.140Z,33.92
2022-08-20T10:10:33.694Z,34.60
2022-08-20T10:13:00.327Z,38.55
2022-08-20T10:15:26.929Z,30.73
2022-08-20T10:17:53.524Z,34.25
2022-08-20T10:20:20.435Z,32.92
2022-08-20T10:22:47.245Z,36.63
2022-08-20T10:25:13.957Z,35.78
2022-08-20T10:27:40.547Z,34.42
2022-08-20T10:30:07.813Z,31.08
2022-08-20T10:32:34.479Z,34.75
2022-08-20T10:35:01.332Z,29.92
2022-08-20T10:37:27.924Z,29.77
2022-08-20T10:39:54.634Z,33.50
2022-08-20T10:42:21.531Z,31.27
2022-08-20T10:44:48.063Z,30.73
2022-08-20T10:47:22.590Z,31.33
2022-08-20T10:49:50.354Z,32.85
2022-08-20T10:52:16.966Z,31.83
2022-08-20T10:54:44.011Z,30.15
2022-08-20T10:57:14.295Z,29.13
2022-08-20T10:59:42.508Z,30.33
2022-08-20T11:02:11.416Z,30.40
2022-08-20T11:04:38.210Z,27.27
2022-08-20T11:07:14.278Z,28.38
2022-08-20T11:09:41.387Z,26.75
2022-08-20T11:12:08.127Z,22.65
2022-08-20T11:14:34.681Z,24.48
2022-08-20T11:17:01.758Z,21.67
2022-08-20T11:19:28.837Z,27.90
2022-08-20T11:21:55.414Z,30.20
2022-08-20T11:24:22.036Z,30.92
2022-08-20T11:26:49.165Z,29.55
2022-08-20T11:29:17.220Z,28.95
2022-08-20T11:31:43.726Z,26.15
2022-08-20T11:34:12.751Z,25.98
2022-08-20T11:36:39.608Z,26.33
2022-08-20T11:39:06.138Z,21.88
2022-08-20T11:41:32.640Z,23.90
2022-08-20T11:44:20.145Z,26.85
2022-08-20T11:46:45.597Z,25.02
2022-08-20T11:49:12.184Z,24.15
2022-08-20T11:51:49.152Z,17.30
2022-08-20T11:54:15.856Z,19.98
2022-08-20T11:56:42.506Z,16.88
2022-08-20T11:59:13.488Z,16.88
2022-08-20T12:01:40.006Z,18.00
2022-08-20T12:04:07.338Z,19.88
2022-08-20T12:06:34.038Z,18.15
2022-08-20T12:09:01.176Z,18.75
2022-08-20T12:11:27.761Z,17.58
2022-08-20T12:13:57.659Z,16.27
2022-08-20T12:16:24.305Z,19.05
2022-08-20T12:18:51.420Z,17.65
2022-08-20T12:21:18.270Z,15.40
2022-08-20T12:23:48.135Z,16.20
2022-08-20T12:26:16.688Z,14.50
2022-08-20T12:28:44.559Z,13.65
2022-08-20T12:31:11.199Z,12.90
2022-08-20T12:33:39.256Z,12.30
2022-08-20T12:36:06.062Z,13.10
2022-08-20T12:38:34.615Z,14.07
2022-08-20T12:41:03.547Z,13.10
2022-08-20T12:43:30.259Z,12.45
2022-08-20T12:45:56.886Z,12.20
2022-08-20T12:48:23.397Z,11.65
2022-08-20T12:50:52.172Z,11.60
2022-08-20T12:53:19.012Z,12.55
2022-08-20T12:55:46.206Z,11.55
2022-08-20T12:58:13.294Z,11.30
2022-08-20T13:00:43.393Z,10.95
2022-08-20T13:03:11.366Z,11.75
2022-08-20T13:05:38.568Z,10.48
2022-08-20T13:08:09.032Z,10.70
2022-08-20T13:10:42.406Z,11.13
2022-08-20T13:13:09.068Z,9.55
2022-08-20T13:15:35.628Z,9.45
2022-08-20T13:18:03.247Z,10.38
2022-08-20T13:20:34.024Z,8.13
2022-08-20T13:23:01.312Z,9.93
2022-08-20T13:25:28.049Z,8.93
2022-08-20T13:27:57.083Z,9.00
2022-08-20T13:30:24.344Z,8.18
2022-08-20T13:32:51.577Z,6.68
2022-08-20T13:35:20.150Z,7.25
2022-08-20T13:37:47.994Z,6.60
2022-08-20T13:40:14.751Z,5.35
2022-08-20T13:42:41.403Z,6.25
2022-08-20T13:45:09.012Z,5.85
2022-08-20T13:47:37.076Z,6.10
2022-08-20T13:50:06.710Z,5.80
2022-08-20T13:52:35.895Z,5.72
2022-08-20T13:55:06.480Z,5.68
2022-08-20T13:57:34.061Z,5.78
2022-08-20T14:00:00.773Z,5.22
2022-08-20T14:02:27.665Z,4.55
2022-08-20T14:04:54.333Z,4.97
2022-08-20T14:07:22.475Z,4.90
2022-08-20T14:09:50.645Z,4.90
2022-08-20T14:12:17.167Z,4.93
2022-08-20T14:14:44.001Z,5.10
2022-08-20T14:17:16.849Z,4.75
2022-08-20T14:19:44.241Z,4.28
2022-08-20T14:22:10.943Z,4.90
2022-08-20T14:24:37.505Z,3.70
2022-08-20T14:27:06.027Z,4.72
2022-08-20T14:29:33.449Z,4.53
2022-08-20T14:32:03.764Z,4.28
2022-08-20T14:34:30.319Z,4.18
2022-08-20T14:36:56.965Z,4.35
2022-08-20T14:39:25.278Z,4.22
2022-08-20T14:41:51.809Z,3.85
2022-08-20T14:44:18.614Z,3.45
2022-08-20T14:46:45.098Z,4.22
2022-08-20T14:49:11.642Z,3.83
2022-08-20T14:51:40.937Z,4.45
2022-08-20T14:54:07.551Z,4.05
2022-08-20T14:56:34.353Z,4.10
2022-08-20T14:59:01.026Z,3.28
2022-08-20T15:01:27.700Z,3.78
2022-08-20T15:03:54.399Z,4.32
2022-08-20T15:06:22.175Z,4.40
2022-08-20T15:08:49.935Z,4.40
2022-08-20T15:11:16.441Z,4.30
2022-08-20T15:13:43.028Z,4.32
2022-08-20T15:16:09.576Z,4.07
2022-08-20T15:18:36.107Z,4.22
2022-08-20T15:21:04.020Z,4.15
2022-08-20T15:23:36.829Z,4.82
2022-08-20T15:26:03.731Z,3.92
2022-08-20T15:28:31.716Z,4.55
2022-08-20T15:30:59.274Z,4.55
2022-08-20T15:33:27.222Z,4.45
2022-08-20T15:35:53.819Z,5.53
2022-08-20T15:38:20.376Z,5.30
2022-08-20T15:40:46.934Z,5.22
2022-08-20T15:43:13.671Z,5.90
2022-08-20T15:45:40.241Z,5.60
2022-08-20T15:48:12.502Z,4.78
2022-08-20T15:50:48.297Z,5.22
2022-08-20T15:53:27.932Z,5.10
2022-08-20T15:56:03.212Z,4.60
2022-08-20T15:58:39.596Z,5.57
2022-08-20T16:01:26.566Z,5.85
2022-08-20T16:03:53.099Z,5.63
2022-08-20T16:06:22.377Z,6.40
2022-08-20T16:09:03.381Z,4.85
2022-08-20T16:11:41.760Z,6.50
2022-08-20T16:14:17.046Z,6.13
2022-08-20T16:16:46.111Z,6.22
2022-08-20T16:19:18.494Z,5.10
2022-08-20T16:21:46.547Z,5.53
2022-08-20T16:24:13.870Z,4.95
2022-08-20T16:26:52.341Z,5.10
2022-08-20T16:29:26.376Z,5.18
2022-08-20T16:32:11.932Z,4.80
2022-08-20T16:34:41.630Z,4.25
2022-08-20T16:37:21.186Z,5.43
2022-08-20T16:40:16.032Z,4.65
2022-08-20T16:42:45.678Z,4.65
2022-08-20T16:45:29.634Z,4.47
2022-08-20T16:48:01.063Z,4.65
2022-08-20T16:50:50.959Z,4.63
2022-08-20T16:53:23.242Z,4.55
2022-08-20T16:55:50.423Z,5.07
2022-08-20T16:58:18.388Z,6.80
2022-08-20T17:00:45.751Z,5.20
2022-08-20T17:03:21.548Z,6.18
2022-08-20T17:06:00.814Z,5.47
2022-08-20T17:08:32.829Z,5.63
2022-08-20T17:11:01.550Z,5.50
2022-08-20T17:13:30.660Z,5.50
2022-08-20T17:15:59.091Z,5.20
2022-08-20T17:18:27.850Z,5.35
2022-08-20T17:21:02.292Z,5.20
2022-08-20T17:23:30.676Z,5.50
2022-08-20T17:25:59.204Z,6.10
2022-08-20T17:28:35.282Z,5.70
2022-08-20T17:31:02.217Z,6.18
2022-08-20T17:33:33.833Z,5.63
2022-08-20T17:36:08.315Z,5.47
2022-08-20T17:38:38.043Z,5.22
2022-08-20T17:41:17.199Z,5.57
2022-08-20T17:43:44.882Z,6.22
2022-08-20T17:46:16.213Z,6.20
2022-08-20T17:48:44.236Z,5.95
2022-08-20T17:51:22.383Z,5.90
2022-08-20T17:53:54.184Z,6.95
2022-08-20T17:56:27.571Z,6.10
2022-08-20T17:58:58.146Z,6.22
2022-08-20T18:01:30.492Z,6.43
2022-08-20T18:03:57.705Z,6.20
2022-08-20T18:06:30.446Z,6.40
2022-08-20T18:09:01.177Z,6.60
2022-08-20T18:11:39.579Z,6.68
2022-08-20T18:14:06.176Z,6.97
2022-08-20T18:16:49.656Z,6.30
2022-08-20T18:19:42.843Z,5.70
2022-08-20T18:22:16.648Z,5.93
2022-08-20T18:24:52.453Z,5.93
2022-08-20T18:27:20.798Z,6.35
2022-08-20T18:29:52.319Z,5.72
2022-08-20T18:32:26.302Z,5.13
2022-08-20T18:34:54.536Z,6.00
2022-08-20T18:37:25.415Z,5.45
2022-08-20T18:39:52.298Z,5.63
2022-08-20T18:42:23.610Z,6.55
2022-08-20T18:44:51.729Z,6.50
2022-08-20T18:47:29.452Z,6.07
2022-08-20T18:50:16.754Z,5.95
2022-08-20T18:52:43.781Z,6.20
2022-08-20T18:55:12.862Z,6.55
2022-08-20T18:57:52.104Z,6.10
2022-08-20T19:00:20.220Z,6.05
2022-08-20T19:02:54.699Z,5.95
2022-08-20T19:05:27.548Z,6.40
2022-08-20T19:07:55.849Z,6.93
2022-08-20T19:10:27.891Z,6.40
2022-08-20T19:12:56.918Z,6.78
2022-08-20T19:15:24.743Z,6.75
2022-08-20T19:18:08.734Z,7.30
2022-08-20T19:20:36.679Z,6.95
2022-08-20T19:23:09.008Z,7.35
2022-08-20T19:25:38.035Z,6.47
2022-08-20T19:28:14.121Z,7.30
2022-08-20T19:30:42.456Z,7.15
2022-08-20T19:33:09.980Z,7.30
2022-08-20T19:35:37.909Z,7.50
2022-08-20T19:38:06.473Z,7.68
2022-08-20T19:40:39.170Z,8.30
2022-08-20T19:43:10.946Z,8.02
2022-08-20T19:45:46.910Z,8.43
2022-08-20T19:48:52.221Z,8.30
2022-08-20T19:51:29.852Z,8.27
2022-08-20T19:53:56.651Z,7.93
2022-08-20T19:56:24.403Z,7.93
2022-08-20T19:58:58.638Z,8.30
2022-08-20T20:01:25.540Z,8.02
2022-08-20T20:03:59.908Z,8.48
2022-08-20T20:06:27.127Z,8.68
2022-08-20T20:08:56.755Z,8.55
2022-08-20T20:11:26.515Z,9.15
2022-08-20T20:13:53.149Z,7.95
2022-08-20T20:16:20.744Z,7.30
2022-08-20T20:19:03.780Z,7.30
2022-08-20T20:21:39.879Z,7.45
2022-08-20T20:24:06.504Z,6.32
2022-08-20T20:26:37.422Z,6.57
2022-08-20T20:29:21.035Z,5.60
2022-08-20T20:31:50.980Z,6.38
2022-08-20T20:34:23.276Z,6.07
2022-08-20T20:36:59.927Z,5.63
2022-08-20T20:39:29.239Z,5.50
2022-08-20T20:41:57.621Z,6.00
2022-08-20T20:44:37.079Z,5.25
2022-08-20T20:47:06.664Z,5.00
2022-08-20T20:49:37.026Z,5.03
2022-08-20T20:52:05.278Z,4.60
2022-08-20T20:54:43.681Z,5.30
2022-08-20T20:57:19.466Z,5.18
2022-08-20T21:00:00.851Z,5.93
2022-08-20T21:02:27.522Z,5.30
2022-08-20T21:04:54.103Z,4.85
2022-08-20T21:07:22.853Z,5.57
2022-08-20T21:09:52.771Z,4.68
2022-08-20T21:12:19.607Z,4.70
2022-08-20T21:14:46.218Z,4.90
2022-08-20T21:17:14.941Z,5.22
2022-08-20T21:19:45.170Z,4.78
2022-08-20T21:22:12.043Z,5.07
2022-08-20T21:24:38.645Z,4.70
2022-08-20T21:27:05.195Z,4.15
2022-08-20T21:29:32.910Z,4.55
2022-08-20T21:31:59.628Z,4.75
2022-08-20T21:34:26.275Z,4.97
2022-08-20T21:36:52.860Z,5.53
2022-08-20T21:39:21.244Z,5.82
2022-08-20T21:41:48.081Z,4.90
2022-08-20T21:44:25.013Z,4.78
2022-08-20T21:46:52.412Z,4.55
2022-08-20T21:49:22.559Z,4.10
2022-08-20T21:51:50.578Z,4.70
2022-08-20T21:54:17.247Z,4.80
2022-08-20T21:56:45.787Z,4.70
2022-08-20T21:59:12.371Z,4.97
2022-08-20T22:01:39.448Z,4.95
2022-08-20T22:04:06.693Z,5.13
2022-08-20T22:06:33.278Z,4.78
2022-08-20T22:09:00.093Z,5.03
2022-08-20T22:11:26.698Z,5.45
2022-08-20T22:13:53.258Z,5.18
2022-08-20T22:16:20.596Z,5.22
2022-08-20T22:18:47.930Z,5.00
2022-08-20T22:21:19.290Z,5.60
2022-08-20T22:23:46.238Z,5.60
2022-08-20T22:26:12.952Z,5.88
2022-08-20T22:28:39.846Z,5.50
2022-08-20T22:31:06.486Z,5.00
2022-08-20T22:33:34.023Z,5.40
2022-08-20T22:36:02.330Z,5.63
2022-08-20T22:38:29.382Z,5.25
2022-08-20T22:40:55.923Z,5.13
2022-08-20T22:43:23.246Z,5.20
2022-08-20T22:45:50.969Z,5.85
2022-08-20T22:48:18.849Z,5.28
2022-08-20T22:50:47.626Z,6.18
2022-08-20T22:53:17.203Z,6.28
2022-08-20T22:55:44.005Z,5.82
2022-08-20T22:58:12.034Z,6.10
2022-08-20T23:00:39.357Z,6.30
2022-08-20T23:03:07.071Z,6.95
2022-08-20T23:05:35.420Z,6.30
2022-08-20T23:08:02.595Z,5.60
2022-08-20T23:10:30.338Z,5.78
2022-08-20T23:12:57.459Z,5.90
2022-08-20T23:15:25.071Z,6.15
2022-08-20T23:17:52.435Z,6.57
2022-08-20T23:20:19.375Z,6.50
2022-08-20T23:22:45.891Z,6.25
2022-08-20T23:25:12.713Z,7.20
2022-08-20T23:27:45.954Z,7.15
2022-08-20T23:30:13.550Z,7.38
2022-08-20T23:32:40.136Z,7.13
2022-08-20T23:35:06.996Z,8.45
2022-08-20T23:37:37.061Z,8.10
2022-08-20T23:40:04.744Z,8.32
2022-08-20T23:42:31.313Z,7.70
2022-08-20T23:44:57.817Z,8.93
2022-08-20T23:47:24.649Z,8.45
2022-08-20T23:49:51.311Z,8.00
2022-08-20T23:52:18.330Z,8.10
2022-08-20T23:54:44.844Z,7.75
2022-08-20T23:57:11.382Z,8.52
2022-08-20T23:59:38.003Z,8.13
